Time;durP1;ratioP1;P1;durP2;ratioP2;P2;SDS_P1;SDS_P2;PMS_P1;PMS_P2;Temp;Humidity;BMP_temperature;BMP_pressure;BME280_temperature;BME280_humidity;BME280_pressure;Samples;Min_cycle;Max_cycle;Signal;HPM_P1;HPM_P2
2022/02/10 00:23:10;;;;;;;11.18;7.45;;;0.10;99.90;;;;;;5089959;28;20143;-73
2022/02/10 00:34:23;;;;;;;10.60;7.32;;;0.00;99.90;;;;;;5090086;28;20032;-72
2022/02/10 00:39:59;;;;;;;12.50;7.53;;;-0.10;99.90;;;;;;5075279;28;20502;-73
2022/02/10 00:42:27;;;;;;;12.13;7.90;;;-0.20;99.90;;;;;;5093761;28;20055;-73
2022/02/10 00:44:59;;;;;;;12.73;8.25;;;-0.20;99.90;;;;;;5093143;28;20036;-73
2022/02/10 00:47:28;;;;;;;10.10;7.82;;;-0.20;99.90;;;;;;5075835;28;20131;-73
2022/02/10 00:50:02;;;;;;;12.45;7.68;;;-0.20;99.90;;;;;;5075921;28;20512;-73
2022/02/10 01:29:44;;;;;;;10.07;6.00;;;-0.30;99.90;;;;;;5092668;28;20076;-73
2022/02/10 01:32:17;;;;;;;7.85;4.53;;;-0.40;99.90;;;;;;5091630;28;20044;-73
2022/02/10 01:34:51;;;;;;;8.02;4.32;;;-0.40;99.90;;;;;;5092711;28;20122;-74
2022/02/10 01:37:23;;;;;;;7.68;4.32;;;-0.30;99.90;;;;;;5074677;28;20051;-72
2022/02/10 01:40:05;;;;;;;6.90;3.95;;;-0.30;99.90;;;;;;5074822;28;20050;-74
2022/02/10 02:05:36;;;;;;;9.77;6.05;;;-0.30;99.90;;;;;;5091631;28;20050;-73
2022/02/10 02:08:09;;;;;;;8.70;5.95;;;-0.30;99.90;;;;;;5090317;28;20499;-73
2022/02/10 02:10:36;;;;;;;9.55;5.93;;;-0.40;99.90;;;;;;5091603;28;20064;-73
2022/02/10 02:13:04;;;;;;;10.30;6.97;;;-0.40;99.90;;;;;;5091152;28;20115;-73
2022/02/10 02:15:35;;;;;;;11.20;7.32;;;-0.40;99.90;;;;;;5074089;28;20058;-73
2022/02/10 02:18:02;;;;;;;12.07;7.70;;;-0.50;99.90;;;;;;5090316;28;20131;-73
2022/02/10 02:20:34;;;;;;;10.63;7.75;;;-0.50;99.90;;;;;;5073030;28;20478;-73
2022/02/10 02:23:05;;;;;;;13.15;7.68;;;-0.60;99.90;;;;;;5077904;28;20036;-72
2022/02/10 02:25:37;;;;;;;9.13;5.30;;;-0.60;99.90;;;;;;5076175;28;20144;-73
2022/02/10 02:28:11;;;;;;;7.13;4.95;;;-0.60;99.90;;;;;;5073364;28;20050;-73
2022/02/10 02:30:54;;;;;;;;;;;-0.60;99.90;;;;;;5090416;28;20040;-73
2022/02/10 03:06:39;;;;;;;9.88;5.72;;;0.30;99.90;;;;;;5089501;28;20494;-73
2022/02/10 03:09:15;;;;;;;8.27;5.30;;;0.30;99.90;;;;;;5072578;28;20072;-73
2022/02/10 03:11:47;;;;;;;9.02;5.43;;;0.20;99.90;;;;;;5090653;28;20044;-72
2022/02/10 03:14:22;;;;;;;7.00;4.03;;;0.10;99.90;;;;;;5072138;28;20598;-73
2022/02/10 03:19:51;;;;;;;5.35;3.33;;;0.10;99.90;;;;;;5089351;28;20036;-73
2022/02/10 03:23:02;;;;;;;5.57;2.95;;;0.10;99.90;;;;;;5090453;28;20087;-73
2022/02/10 04:15:26;;;;;;;4.03;2.78;;;-0.40;99.90;;;;;;5093648;28;20074;-73
2022/02/10 04:20:53;;;;;;;5.40;3.80;;;-0.30;99.90;;;;;;5094224;28;20130;-72
2022/02/10 04:32:05;;;;;;;7.45;5.68;;;0.00;99.90;;;;;;5094153;28;20067;-73
2022/02/10 04:58:28;;;;;;;6.95;3.80;;;0.40;99.90;;;;;;5074961;28;20138;-73
2022/02/10 05:31:54;;;;;;;7.95;4.53;;;0.80;99.90;;;;;;5074295;28;20143;-73
2022/02/10 05:34:19;;;;;;;5.68;4.20;;;1.10;99.90;;;;;;5092321;28;20081;-72
2022/02/10 05:36:47;;;;;;;6.75;3.47;;;1.60;99.90;;;;;;5093049;28;20131;-72
2022/02/10 05:39:24;;;;;;;10.40;4.35;;;1.90;99.90;;;;;;5074273;28;20473;-72
2022/02/10 05:42:37;;;;;;;8.15;4.72;;;2.00;99.90;;;;;;5092968;28;20122;-72
2022/02/10 05:55:37;;;;;;;5.82;4.05;;;3.20;99.90;;;;;;5088357;28;20528;-73
2022/02/10 05:58:12;;;;;;;7.63;4.25;;;3.20;99.90;;;;;;5100836;28;20134;-73
2022/02/10 07:16:13;;;;;;;5.10;3.50;;;3.80;99.90;;;;;;5080191;28;20048;-73
2022/02/10 07:47:34;;;;;;;7.47;3.33;;;3.70;99.90;;;;;;5072230;28;20126;-73
2022/02/10 09:11:06;;;;;;;4.82;3.53;;;7.40;99.90;;;;;;5075240;28;20044;-73
2022/02/10 10:02:58;;;;;;;5.22;3.17;;;9.20;99.90;;;;;;5091702;28;20047;-73
2022/02/10 10:05:45;;;;;;;8.60;3.45;;;9.30;99.90;;;;;;5084629;28;20549;-73
2022/02/10 10:14:08;;;;;;;4.07;2.90;;;9.50;99.90;;;;;;5036162;28;20039;-72
2022/02/10 10:19:44;;;;;;;8.50;2.58;;;9.70;99.90;;;;;;5074030;28;20049;-73
2022/02/10 10:56:21;;;;;;;8.33;2.80;;;10.60;99.90;;;;;;5090193;28;20135;-73
2022/02/10 11:38:20;;;;;;;5.90;3.65;;;11.30;99.90;;;;;;5090957;28;20086;-72
2022/02/10 11:43:38;;;;;;;4.82;2.92;;;11.30;99.90;;;;;;5089258;28;20075;-72
2022/02/10 12:43:55;;;;;;;7.65;4.20;;;11.40;99.90;;;;;;5071921;28;20140;-73
2022/02/10 14:13:54;;;;;;;5.80;4.32;;;11.30;99.90;;;;;;5090714;28;20043;-72
2022/02/10 14:19:27;;;;;;;5.70;4.25;;;11.50;99.90;;;;;;5090112;28;20147;-73
2022/02/10 14:27:20;;;;;;;7.75;3.95;;;11.50;99.90;;;;;;5072825;28;20123;-73
2022/02/10 14:29:52;;;;;;;7.57;4.53;;;11.50;99.90;;;;;;5072046;28;20105;-73
2022/02/10 14:32:29;;;;;;;9.65;4.60;;;11.50;99.90;;;;;;5073424;28;20408;-73
2022/02/10 14:35:12;;;;;;;9.13;4.20;;;11.50;99.90;;;;;;5058140;28;20602;-73
2022/02/10 14:40:57;;;;;;;9.00;4.15;;;11.50;99.90;;;;;;5091783;28;20054;-74
2022/02/10 15:10:50;;;;;;;8.80;4.20;;;11.50;99.90;;;;;;5091125;28;20131;-72
2022/02/10 15:17:24;;;;;;;6.55;4.57;;;10.80;99.90;;;;;;5079842;28;19924;-73
2022/02/10 16:13:15;;;;;;;15.35;5.93;;;10.00;99.90;;;;;;5089263;28;20047;-73
2022/02/10 16:17:55;;;;;;;8.75;4.07;;;10.00;99.90;;;;;;5089951;28;20122;-73
2022/02/10 16:20:30;;;;;;;6.70;3.75;;;9.90;99.90;;;;;;5069738;28;20038;-72
2022/02/10 16:23:05;;;;;;;8.55;5.75;;;9.80;99.90;;;;;;5089711;28;20123;-73
2022/02/10 16:25:46;;;;;;;8.95;4.25;;;9.80;99.90;;;;;;5091465;28;20040;-73
2022/02/10 16:30:51;;;;;;;8.00;3.67;;;9.80;99.90;;;;;;5090778;28;20042;-73
2022/02/10 16:33:23;;;;;;;7.72;3.95;;;9.70;99.90;;;;;;5090887;28;20067;-73
2022/02/10 16:35:55;;;;;;;8.77;4.15;;;9.70;99.90;;;;;;5075074;28;20511;-73
2022/02/10 16:38:27;;;;;;;5.57;3.40;;;9.60;99.90;;;;;;5075719;28;20132;-73
2022/02/10 16:40:59;;;;;;;6.43;4.03;;;9.60;99.90;;;;;;5092741;28;20098;-72
2022/02/10 16:43:31;;;;;;;9.70;4.03;;;9.50;99.90;;;;;;5092192;28;20502;-73
2022/02/10 16:45:59;;;;;;;9.15;3.97;;;9.50;99.90;;;;;;5075517;28;20044;-73
2022/02/10 16:48:33;;;;;;;8.73;4.60;;;9.40;99.90;;;;;;5092647;28;20047;-73
2022/02/10 16:51:08;;;;;;;7.65;3.83;;;9.40;99.90;;;;;;5073288;28;20126;-73
2022/02/10 16:53:45;;;;;;;6.70;3.78;;;9.30;99.90;;;;;;5086552;28;20376;-73
2022/02/10 16:56:22;;;;;;;5.70;4.70;;;9.30;99.90;;;;;;5072311;28;20044;-72
2022/02/10 16:59:11;;;;;;;10.30;4.72;;;9.20;99.90;;;;;;5079225;28;20074;-73
2022/02/10 17:16:48;;;;;;;12.32;4.85;;;9.00;99.90;;;;;;5082960;28;20126;-73
2022/02/10 17:25:06;;;;;;;9.98;4.53;;;8.90;99.90;;;;;;5090249;28;20165;-73
2022/02/10 17:27:19;;;;;;;7.60;4.50;;;8.70;99.90;;;;;;5066335;28;20059;-72
2022/02/10 17:35:45;;;;;;;7.35;4.35;;;8.60;99.90;;;;;;5077521;28;20498;-73
2022/02/10 17:46:52;;;;;;;7.22;3.85;;;8.40;99.90;;;;;;5090638;28;20063;-73
2022/02/10 17:52:17;;;;;;;9.30;4.32;;;8.30;99.90;;;;;;5092886;28;20494;-72
2022/02/10 17:54:49;;;;;;;7.57;4.10;;;8.30;99.90;;;;;;5074229;28;20068;-73
2022/02/10 17:57:17;;;;;;;10.00;5.15;;;8.30;99.90;;;;;;5075158;28;20048;-73
2022/02/10 17:59:49;;;;;;;7.93;4.60;;;8.20;99.90;;;;;;5099353;28;20035;-72
2022/02/10 18:02:21;;;;;;;7.88;4.45;;;8.20;99.90;;;;;;5064492;28;20044;-72
2022/02/10 18:04:49;;;;;;;10.20;4.57;;;8.10;99.90;;;;;;5087953;28;20107;-72
2022/02/10 18:07:16;;;;;;;10.85;4.93;;;8.10;99.90;;;;;;5106880;28;20131;-72
2022/02/10 18:10:06;;;;;;;8.93;4.95;;;8.10;99.90;;;;;;5093175;28;20115;-73
2022/02/10 18:15:29;;;;;;;9.02;4.75;;;8.00;99.90;;;;;;5091051;28;20040;-72
2022/02/10 18:18:10;;;;;;;13.05;7.60;;;8.00;99.90;;;;;;5112091;28;20055;-73
2022/02/10 18:20:48;;;;;;;10.13;5.85;;;8.00;99.90;;;;;;5099042;28;20046;-72
2022/02/10 18:23:29;;;;;;;10.15;6.78;;;8.00;99.90;;;;;;5099887;28;20032;-73
2022/02/10 18:26:02;;;;;;;9.50;7.22;;;7.90;99.90;;;;;;5088025;28;20127;-73
2022/02/10 18:28:52;;;;;;;12.88;8.00;;;7.80;99.90;;;;;;5072991;28;20036;-73
2022/02/10 18:34:36;;;;;;;16.17;8.40;;;7.60;99.90;;;;;;5086307;28;20032;-73
2022/02/10 18:38:16;;;;;;;14.15;7.93;;;7.60;99.90;;;;;;5088056;28;20118;-73
2022/02/10 19:10:23;;;;;;;13.90;9.63;;;6.80;99.90;;;;;;5091488;28;20097;-72
2022/02/10 19:12:58;;;;;;;17.17;9.60;;;6.80;99.90;;;;;;5070951;28;20135;-73
2022/02/10 19:15:35;;;;;;;16.35;9.95;;;6.80;99.90;;;;;;5090788;28;20036;-72
2022/02/10 19:18:09;;;;;;;14.05;9.40;;;6.70;99.90;;;;;;5073993;28;20032;-72
2022/02/10 19:20:37;;;;;;;15.50;9.20;;;6.70;99.90;;;;;;5076643;28;20046;-73
2022/02/10 19:23:06;;;;;;;15.63;9.88;;;6.60;99.90;;;;;;5073099;28;20054;-74
2022/02/10 19:25:38;;;;;;;14.02;9.43;;;6.60;99.90;;;;;;5092522;28;20032;-73
2022/02/10 19:28:10;;;;;;;14.82;10.15;;;6.60;99.90;;;;;;5090048;28;20064;-73
2022/02/10 19:30:44;;;;;;;14.60;10.52;;;6.60;99.90;;;;;;5054710;28;20512;-72
2022/02/10 19:33:16;;;;;;;;;;;6.70;99.90;;;;;;5083132;28;20748;-73
2022/02/10 19:35:51;;;;;;;13.80;9.65;;;6.70;99.90;;;;;;5090841;28;19924;-72
2022/02/10 19:38:25;;;;;;;16.50;9.68;;;6.70;99.90;;;;;;5078608;28;20050;-73
2022/02/10 19:40:58;;;;;;;13.93;9.52;;;6.60;99.90;;;;;;5089169;28;20054;-73
2022/02/10 19:43:30;;;;;;;13.55;8.93;;;6.60;99.90;;;;;;5073468;28;20443;-73
2022/02/10 19:46:02;;;;;;;12.93;9.07;;;6.50;99.90;;;;;;5078763;28;20047;-73
2022/02/10 19:48:34;;;;;;;13.88;8.70;;;6.50;99.90;;;;;;5074566;28;20113;-73
2022/02/10 19:51:07;;;;;;;13.48;9.43;;;6.40;99.90;;;;;;5071432;28;20049;-73
2022/02/10 19:53:39;;;;;;;15.25;9.23;;;6.40;99.90;;;;;;5072050;28;20063;-72
2022/02/10 19:56:13;;;;;;;15.32;9.55;;;6.30;99.90;;;;;;5075806;28;20131;-73
2022/02/10 19:58:45;;;;;;;15.93;9.90;;;6.30;99.90;;;;;;5089103;28;20044;-73
2022/02/10 20:01:17;;;;;;;14.70;8.68;;;6.20;99.90;;;;;;5071933;28;20072;-73
2022/02/10 20:03:44;;;;;;;14.00;8.00;;;6.20;99.90;;;;;;5081539;28;20032;-73
2022/02/10 20:06:16;;;;;;;13.88;8.88;;;6.20;99.90;;;;;;5088741;28;20110;-73
2022/02/10 20:08:49;;;;;;;13.45;8.13;;;6.20;99.90;;;;;;5080565;28;20060;-73
2022/02/10 20:11:16;;;;;;;10.40;7.70;;;6.20;99.90;;;;;;5060492;28;20048;-73
2022/02/10 20:13:48;;;;;;;12.25;8.85;;;6.20;99.90;;;;;;5092549;28;20040;-72
2022/02/10 20:16:19;;;;;;;18.42;9.10;;;6.10;99.90;;;;;;5072561;28;20044;-73
2022/02/10 20:18:52;;;;;;;13.48;9.32;;;6.20;99.90;;;;;;5072085;28;20832;-73
2022/02/10 20:21:24;;;;;;;13.02;9.00;;;6.20;99.90;;;;;;5077219;28;20036;-73
2022/02/10 20:23:51;;;;;;;11.88;7.95;;;6.10;99.90;;;;;;5077901;28;20037;-73
2022/02/10 20:26:18;;;;;;;13.13;8.48;;;6.20;99.90;;;;;;5084432;28;20040;-73
2022/02/10 20:28:49;;;;;;;14.18;8.32;;;6.20;99.90;;;;;;5075154;28;20123;-73
2022/02/10 20:31:22;;;;;;;17.63;9.80;;;6.10;99.90;;;;;;5090325;28;20043;-73
2022/02/10 20:33:54;;;;;;;13.63;9.10;;;6.10;99.90;;;;;;5088586;28;20521;-72
2022/02/10 20:36:25;;;;;;;13.55;8.25;;;6.10;99.90;;;;;;5052958;28;20170;-75
2022/02/10 20:38:59;;;;;;;11.45;7.93;;;6.00;99.90;;;;;;5069340;28;20142;-74
2022/02/10 20:41:30;;;;;;;13.57;8.77;;;6.00;99.90;;;;;;5070245;28;20462;-76
2022/02/10 20:43:59;;;;;;;9.98;7.80;;;6.00;99.90;;;;;;5052164;28;20145;-73
2022/02/10 20:46:34;;;;;;;9.73;7.15;;;6.10;99.90;;;;;;5070584;28;20119;-74
2022/02/10 20:49:14;;;;;;;11.98;7.93;;;6.10;99.90;;;;;;5052500;28;20120;-73
2022/02/10 20:51:50;;;;;;;9.38;6.65;;;6.10;99.90;;;;;;5053532;28;20044;-73
2022/02/10 20:54:17;;;;;;;14.63;7.65;;;6.10;99.90;;;;;;5069689;28;20408;-73
2022/02/10 20:56:45;;;;;;;10.68;7.10;;;6.10;99.90;;;;;;5072743;28;20527;-73
2022/02/10 20:59:27;;;;;;;11.02;7.25;;;6.10;99.90;;;;;;5082121;28;20428;-73
2022/02/10 21:02:06;;;;;;;12.38;6.97;;;6.10;99.90;;;;;;5082013;28;20555;-73
2022/02/10 21:04:52;;;;;;;11.65;6.75;;;6.10;99.90;;;;;;5081736;28;20037;-73
2022/02/10 21:07:39;;;;;;;10.20;6.55;;;6.10;99.90;;;;;;5094126;28;20052;-73
2022/02/10 21:10:14;;;;;;;11.55;7.43;;;6.10;99.90;;;;;;5093986;28;20040;-73
2022/02/10 21:12:47;;;;;;;13.40;7.20;;;6.10;99.90;;;;;;5091382;28;20046;-73
2022/02/10 21:15:19;;;;;;;9.95;6.63;;;6.10;99.90;;;;;;5075645;28;20134;-73
2022/02/10 21:17:56;;;;;;;12.10;7.18;;;6.10;99.90;;;;;;5069999;28;20056;-73
2022/02/10 21:20:31;;;;;;;9.75;6.45;;;6.10;99.90;;;;;;5072052;28;20036;-73
2022/02/10 21:23:25;;;;;;;11.98;6.43;;;6.10;99.90;;;;;;5057529;28;20139;-73
2022/02/10 21:25:59;;;;;;;8.63;6.15;;;6.10;99.90;;;;;;5092099;28;20035;-73
2022/02/10 21:28:35;;;;;;;10.70;4.97;;;6.20;99.90;;;;;;5075620;28;20036;-73
2022/02/10 21:31:08;;;;;;;8.98;6.40;;;6.20;99.90;;;;;;5070033;28;20614;-73
2022/02/10 21:56:05;;;;;;;6.47;4.18;;;6.50;99.90;;;;;;5073023;28;20454;-73
2022/02/10 21:59:15;;;;;;;7.95;4.07;;;6.50;99.90;;;;;;5072687;28;20751;-73
2022/02/10 22:08:06;;;;;;;8.02;4.00;;;6.60;99.90;;;;;;5054243;28;20143;-73
2022/02/10 22:10:06;;;;;;;7.38;3.55;;;6.70;99.90;;;;;;5054583;28;20419;-73
2022/02/10 22:18:40;;;;;;;6.45;4.20;;;6.70;99.90;;;;;;5072465;28;20047;-73
2022/02/10 22:21:18;;;;;;;7.30;4.55;;;6.70;99.90;;;;;;5081300;28;20659;-73
2022/02/10 22:23:48;;;;;;;10.30;4.47;;;6.70;99.90;;;;;;5073954;28;20070;-73
2022/02/10 22:26:24;;;;;;;7.78;4.45;;;6.60;99.90;;;;;;5091419;28;20123;-73
2022/02/10 22:29:20;;;;;;;7.07;4.47;;;6.60;99.90;;;;;;5074379;28;20044;-73
2022/02/10 22:34:41;;;;;;;10.68;4.80;;;6.60;99.90;;;;;;5091950;28;20136;-73
2022/02/10 22:37:11;;;;;;;6.78;5.13;;;6.60;99.90;;;;;;5091475;28;20517;-73
2022/02/10 22:39:43;;;;;;;6.63;4.68;;;6.60;99.90;;;;;;5090642;28;20205;-73
2022/02/10 22:42:15;;;;;;;8.90;4.75;;;6.60;99.90;;;;;;5092048;28;20539;-73
2022/02/10 22:44:47;;;;;;;10.30;5.25;;;6.60;99.90;;;;;;5081817;28;20123;-73
2022/02/10 22:47:18;;;;;;;6.95;4.25;;;6.60;99.90;;;;;;5090899;28;20461;-73
2022/02/10 22:49:50;;;;;;;7.70;4.50;;;6.60;99.90;;;;;;5071928;28;20032;-73
2022/02/10 22:52:17;;;;;;;8.80;4.85;;;6.60;99.90;;;;;;5067048;28;20664;-74
2022/02/10 22:54:49;;;;;;;6.95;4.70;;;6.50;99.90;;;;;;5068319;28;20127;-73
2022/02/10 22:57:20;;;;;;;10.52;5.15;;;6.50;99.90;;;;;;5069405;28;20123;-72
2022/02/10 22:59:47;;;;;;;13.35;4.78;;;6.50;99.90;;;;;;5070611;28;20064;-73
2022/02/10 23:02:19;;;;;;;8.52;4.50;;;6.50;99.90;;;;;;5079525;28;20486;-73
2022/02/10 23:04:46;;;;;;;6.72;4.70;;;6.50;99.90;;;;;;5088762;28;20146;-73
2022/02/10 23:07:17;;;;;;;7.43;4.30;;;6.50;99.90;;;;;;5072855;28;20540;-72
2022/02/10 23:09:53;;;;;;;9.75;5.35;;;6.50;99.90;;;;;;5090568;28;20047;-73
2022/02/10 23:12:19;;;;;;;6.55;4.55;;;6.50;99.90;;;;;;5073630;28;20559;-73
2022/02/10 23:14:51;;;;;;;8.43;5.18;;;6.50;99.90;;;;;;5089767;28;20130;-73
2022/02/10 23:17:23;;;;;;;12.38;4.75;;;6.50;99.90;;;;;;5073559;28;20497;-73
2022/02/10 23:19:50;;;;;;;6.43;4.05;;;6.60;99.90;;;;;;5073326;28;20116;-73
2022/02/10 23:22:21;;;;;;;10.00;4.53;;;6.60;99.90;;;;;;5090010;28;20040;-73
2022/02/10 23:24:48;;;;;;;6.22;4.30;;;6.60;99.90;;;;;;5073032;28;20131;-73
2022/02/10 23:27:20;;;;;;;7.78;4.38;;;6.50;99.90;;;;;;5091479;28;20044;-72
2022/02/10 23:29:52;;;;;;;9.75;6.13;;;6.50;99.90;;;;;;5090194;28;20123;-73
2022/02/10 23:32:18;;;;;;;9.35;5.32;;;6.50;99.90;;;;;;5073348;28;20574;-73
2022/02/10 23:34:50;;;;;;;8.40;5.40;;;6.50;99.90;;;;;;5090259;28;20054;-73
2022/02/10 23:37:22;;;;;;;8.00;4.50;;;6.50;99.90;;;;;;5073009;28;20040;-73
2022/02/10 23:39:49;;;;;;;6.15;4.55;;;6.60;99.90;;;;;;5073124;28;20051;-73
2022/02/10 23:42:29;;;;;;;12.15;5.60;;;6.60;99.90;;;;;;5090896;28;20052;-73
2022/02/10 23:45:11;;;;;;;8.55;4.95;;;6.70;99.90;;;;;;5091353;28;20138;-72
2022/02/10 23:47:43;;;;;;;10.60;5.05;;;6.70;99.90;;;;;;5091270;28;20123;-73
2022/02/10 23:50:16;;;;;;;9.30;4.93;;;6.60;99.90;;;;;;5089718;28;20036;-73
2022/02/10 23:52:43;;;;;;;9.43;5.10;;;6.60;99.90;;;;;;5090765;28;20040;-73
2022/02/10 23:55:21;;;;;;;10.15;5.43;;;6.60;99.90;;;;;;5091202;28;20040;-73
2022/02/10 23:58:08;;;;;;;9.90;5.55;;;6.60;99.90;;;;;;5090936;28;20040;-73
